Time;durP1;ratioP1;P1;durP2;ratioP2;P2;SDS_P1;SDS_P2;PMS_P1;PMS_P2;Temp;Humidity;BMP_temperature;BMP_pressure;BME280_temperature;BME280_humidity;BME280_pressure;Samples;Min_cycle;Max_cycle;Signal;HPM_P1;HPM_P2
2022/04/22 00:01:45;;;;;;;18.88;14.00;;;;;;;9.07;65.19;100418.72;5052662;28;20424;-52
2022/04/22 00:04:11;;;;;;;17.05;13.57;;;;;;;9.10;65.06;100426.50;5052429;28;20067;-52
2022/04/22 00:06:36;;;;;;;17.13;13.32;;;;;;;9.07;65.18;100424.06;5051355;28;20032;-52
2022/04/22 00:09:02;;;;;;;15.68;12.82;;;;;;;9.05;64.90;100421.50;5052441;28;20029;-59
2022/04/22 00:11:30;;;;;;;16.50;13.45;;;;;;;9.05;65.32;100421.50;5069654;28;20112;-52
2022/04/22 00:14:00;;;;;;;15.88;13.20;;;;;;;8.93;65.04;100396.44;5072480;28;20067;-54
2022/04/22 00:16:27;;;;;;;19.55;14.60;;;;;;;9.12;65.27;100427.28;5071574;28;20074;-49
2022/04/22 00:18:54;;;;;;;17.45;14.60;;;;;;;9.10;65.03;100423.84;5071741;28;20060;-52
2022/04/22 00:21:19;;;;;;;18.63;15.07;;;;;;;9.10;65.30;100423.84;5071668;28;20402;-52
2022/04/22 00:23:45;;;;;;;19.25;15.23;;;;;;;9.13;65.15;100428.97;5072073;28;20120;-54
2022/04/22 00:26:11;;;;;;;19.30;15.32;;;;;;;9.12;65.27;100416.59;5071173;28;20044;-51
2022/04/22 00:28:37;;;;;;;18.70;14.82;;;;;;;9.16;65.26;100418.09;5071459;28;20460;-50
2022/04/22 00:31:02;;;;;;;20.33;14.90;;;;;;;9.19;64.94;100429.44;5072642;28;20027;-50
2022/04/22 00:33:28;;;;;;;18.85;15.57;;;;;;;9.20;64.97;100419.63;5071723;28;20039;-50
2022/04/22 00:35:53;;;;;;;19.10;15.93;;;;;;;9.18;64.87;100410.88;5071450;28;20387;-49
2022/04/22 00:38:19;;;;;;;19.10;16.05;;;;;;;9.21;65.03;100425.81;5072257;28;20024;-50
2022/04/22 00:40:44;;;;;;;21.67;16.30;;;;;;;9.21;64.84;100415.13;5071472;28;20024;-50
2022/04/22 00:43:40;;;;;;;23.20;17.80;;;;;;;9.31;65.23;100414.44;5070522;28;20376;-51
2022/04/22 00:46:06;;;;;;;22.80;17.15;;;;;;;9.24;64.79;100410.47;5071503;28;20107;-49
2022/04/22 00:48:31;;;;;;;24.88;17.73;;;;;;;9.22;65.19;100408.84;5072175;28;20157;-53
2022/04/22 00:50:57;;;;;;;19.77;16.60;;;;;;;9.19;64.80;100413.41;5072155;28;20120;-54
2022/04/22 00:53:23;;;;;;;20.05;16.25;;;;;;;9.21;65.45;100416.00;5071790;28;20036;-53
2022/04/22 00:55:48;;;;;;;19.13;15.32;;;;;;;9.19;64.94;100408.06;5071790;28;20036;-52
2022/04/22 00:58:14;;;;;;;19.67;15.77;;;;;;;9.22;64.97;100417.72;5054333;28;20430;-51
2022/04/22 01:00:40;;;;;;;21.85;15.45;;;;;;;9.21;65.11;100416.00;5060704;28;20033;-49
2022/04/22 01:03:06;;;;;;;20.80;15.45;;;;;;;9.18;65.17;100408.19;5051314;28;20025;-54
2022/04/22 01:11:01;;;;;;;22.67;16.77;;;;;;;9.19;65.14;100405.41;5051598;28;20043;-52
2022/04/22 01:13:27;;;;;;;22.48;16.65;;;;;;;9.18;65.22;100405.53;5050983;28;20029;-54
2022/04/22 01:15:53;;;;;;;23.65;17.30;;;;;;;9.15;65.08;100401.22;5051767;28;20427;-56
2022/04/22 01:18:18;;;;;;;22.40;17.50;;;;;;;8.95;65.42;100365.16;5052433;28;20086;-55
2022/04/22 01:20:44;;;;;;;21.67;17.60;;;;;;;9.13;65.51;100397.81;5051365;28;20055;-53
2022/04/22 01:23:10;;;;;;;23.08;16.40;;;;;;;9.17;65.45;100399.31;5050944;28;20033;-53
2022/04/22 01:25:36;;;;;;;25.52;17.60;;;;;;;9.15;65.15;100389.66;5051555;28;20158;-54
2022/04/22 01:28:02;;;;;;;22.58;17.50;;;;;;;9.04;65.56;100364.53;5051920;28;20032;-50
2022/04/22 01:30:28;;;;;;;22.10;17.15;;;;;;;9.20;65.74;100398.25;5051121;28;20100;-53
2022/04/22 01:32:56;;;;;;;25.00;18.75;;;;;;;9.25;65.40;100392.59;5050646;28;20465;-56
2022/04/22 01:35:23;;;;;;;24.90;18.48;;;;;;;9.24;65.62;100399.78;5051031;28;20047;-55
2022/04/22 01:37:49;;;;;;;23.35;17.83;;;;;;;9.09;65.46;100371.38;5050818;28;20151;-56
2022/04/22 01:40:15;;;;;;;24.58;18.17;;;;;;;9.26;65.19;100392.50;5050936;28;20040;-55
2022/04/22 01:42:41;;;;;;;28.33;18.00;;;;;;;9.27;65.37;100396.03;5050663;28;20075;-53
2022/04/22 01:45:08;;;;;;;26.13;19.05;;;;;;;9.28;65.25;100395.06;5051114;28;20028;-56
2022/04/22 01:47:33;;;;;;;25.92;18.42;;;;;;;9.28;65.49;100395.94;5049729;28;20056;-55
2022/04/22 01:50:02;;;;;;;28.38;18.75;;;;;;;9.25;65.49;100389.91;5050182;28;20470;-55
2022/04/22 01:52:29;;;;;;;24.23;17.33;;;;;;;9.27;65.59;100386.19;5049688;28;20132;-55
2022/04/22 01:54:56;;;;;;;26.10;18.15;;;;;;;9.22;65.27;100380.31;5050053;28;20381;-53
2022/04/22 01:57:21;;;;;;;24.55;18.02;;;;;;;9.29;65.73;100396.81;5049447;28;20032;-52
2022/04/22 01:59:48;;;;;;;25.00;17.58;;;;;;;9.26;65.20;100387.16;5049842;28;20037;-51
2022/04/22 02:02:17;;;;;;;21.77;16.75;;;;;;;9.35;64.91;100396.38;5049973;28;20031;-51
2022/04/22 02:04:43;;;;;;;20.88;16.27;;;;;;;9.28;65.28;100382.56;5049541;28;20032;-53
2022/04/22 02:07:10;;;;;;;23.65;17.15;;;;;;;9.33;64.70;100391.13;5049555;28;20436;-55
2022/04/22 02:09:35;;;;;;;22.05;17.15;;;;;;;9.32;64.79;100396.59;5049641;28;20032;-53
2022/04/22 02:12:01;;;;;;;24.80;17.77;;;;;;;9.30;64.68;100398.50;5031490;28;20388;-52
2022/04/22 02:14:27;;;;;;;23.77;16.83;;;;;;;9.15;65.09;100403.03;5049411;28;20108;-50
2022/04/22 02:16:53;;;;;;;26.50;17.85;;;;;;;9.16;64.92;100405.59;5049638;28;20060;-50
2022/04/22 02:19:19;;;;;;;25.38;19.42;;;;;;;9.21;64.72;100409.78;5049642;28;20031;-50
2022/04/22 02:21:45;;;;;;;26.80;18.92;;;;;;;9.04;65.20;100404.59;5049085;28;20041;-50
2022/04/22 02:24:12;;;;;;;31.75;18.63;;;;;;;8.97;65.58;100403.28;5050181;28;20032;-50
2022/04/22 02:29:22;;;;;;;28.63;19.35;;;;;;;8.92;66.16;100402.69;5048607;28;20060;-55
2022/04/22 02:31:51;;;;;;;25.92;18.80;;;;;;;8.94;66.15;100402.63;5048930;28;20064;-54
2022/04/22 02:34:18;;;;;;;29.75;19.42;;;;;;;8.99;65.99;100405.84;5049883;28;20033;-54
2022/04/22 02:36:44;;;;;;;32.33;19.48;;;;;;;8.99;65.81;100401.38;5049550;28;20029;-53
2022/04/22 02:39:09;;;;;;;26.30;17.58;;;;;;;8.98;65.77;100394.31;5049391;28;20036;-56
2022/04/22 02:47:03;;;;;;;20.45;14.23;;;;;;;8.95;65.55;100399.88;5049203;28;20480;-49
2022/04/22 02:49:29;;;;;;;28.23;15.90;;;;;;;8.86;65.61;100392.44;5048826;28;20469;-50
2022/04/22 02:51:54;;;;;;;25.15;15.18;;;;;;;8.85;66.26;100409.41;5049063;28;21977;-49
2022/04/22 02:54:20;;;;;;;25.02;14.20;;;;;;;8.79;66.24;100413.31;5049627;28;20056;-54
2022/04/22 02:56:45;;;;;;;24.35;14.20;;;;;;;8.80;66.07;100408.84;5031398;28;20032;-50
2022/04/22 02:59:11;;;;;;;25.10;14.43;;;;;;;8.76;66.57;100395.69;5049101;28;20083;-57
2022/04/22 03:01:37;;;;;;;23.35;14.95;;;;;;;8.78;66.23;100392.91;5031571;28;20060;-53
2022/04/22 03:04:03;;;;;;;24.20;15.88;;;;;;;8.84;65.94;100410.38;5049451;28;20032;-55
2022/04/22 03:06:29;;;;;;;29.02;16.85;;;;;;;8.79;66.34;100404.47;5049179;28;20029;-55
2022/04/22 03:08:54;;;;;;;22.35;14.98;;;;;;;8.78;65.99;100397.41;5048896;28;20025;-51
2022/04/22 03:11:21;;;;;;;23.65;15.48;;;;;;;8.75;66.12;100404.66;5048763;28;20031;-52
2022/04/22 03:13:49;;;;;;;24.83;16.00;;;;;;;8.69;66.56;100407.72;5049101;28;20079;-56
2022/04/22 03:16:19;;;;;;;26.23;15.75;;;;;;;8.66;66.55;100396.38;5049312;28;20031;-49
2022/04/22 03:18:45;;;;;;;25.42;15.88;;;;;;;8.45;66.96;100376.28;5048569;28;20025;-50
2022/04/22 03:21:10;;;;;;;25.33;15.52;;;;;;;8.67;67.28;100406.94;5048992;28;20090;-51
2022/04/22 03:23:36;;;;;;;24.30;14.73;;;;;;;8.78;67.17;100405.44;5049427;28;20036;-55
2022/04/22 03:26:01;;;;;;;30.45;16.92;;;;;;;8.85;66.05;100404.06;5048921;28;20045;-53
2022/04/22 03:28:27;;;;;;;30.80;17.45;;;;;;;8.84;66.03;100402.34;5048519;28;20080;-55
2022/04/22 03:30:52;;;;;;;30.10;16.67;;;;;;;8.78;66.91;100402.75;5030840;28;20033;-50
2022/04/22 03:33:19;;;;;;;26.67;16.13;;;;;;;8.81;66.92;100408.75;5048483;28;20059;-54
2022/04/22 03:35:48;;;;;;;23.95;14.77;;;;;;;8.90;65.97;100405.50;5030827;28;20425;-51
2022/04/22 03:38:14;;;;;;;24.50;14.93;;;;;;;8.89;66.40;100403.78;5048907;28;20124;-54
2022/04/22 03:40:40;;;;;;;24.70;15.05;;;;;;;8.86;66.71;100413.78;5048830;28;20378;-52
2022/04/22 03:43:05;;;;;;;24.67;14.95;;;;;;;8.91;66.67;100409.00;5052436;28;20041;-52
2022/04/22 03:45:31;;;;;;;22.38;14.32;;;;;;;9.00;66.11;100412.91;5052280;28;20670;-52
2022/04/22 03:47:59;;;;;;;24.35;14.25;;;;;;;9.08;65.98;100420.41;5034276;28;20036;-50
2022/04/22 03:50:26;;;;;;;21.48;14.00;;;;;;;9.17;66.03;100412.66;5052285;28;20055;-53
2022/04/22 03:52:52;;;;;;;21.63;12.88;;;;;;;9.24;65.50;100410.47;5051901;28;20115;-49
2022/04/22 03:55:18;;;;;;;17.92;12.02;;;;;;;9.27;65.06;100409.38;5052525;28;20040;-50
2022/04/22 04:00:27;;;;;;;19.67;12.38;;;;;;;9.38;63.90;100392.63;5051779;28;20456;-49
2022/04/22 04:02:53;;;;;;;20.05;13.43;;;;;;;9.36;63.88;100423.94;5052146;28;20037;-49
2022/04/22 04:05:18;;;;;;;19.08;12.10;;;;;;;9.32;63.85;100423.31;5052029;28;20043;-52
2022/04/22 04:07:44;;;;;;;16.15;12.60;;;;;;;9.28;63.73;100424.44;5052276;28;20025;-53
2022/04/22 04:18:22;;;;;;;16.20;10.45;;;;;;;9.26;63.57;100431.72;5041367;28;20412;-56
2022/04/22 04:23:32;;;;;;;19.17;11.32;;;;;;;9.12;64.11;100428.16;5060800;28;20033;-54
2022/04/22 04:25:59;;;;;;;16.77;11.50;;;;;;;9.01;64.75;100420.81;5059412;28;20093;-53
2022/04/22 04:28:27;;;;;;;22.50;12.60;;;;;;;8.85;65.08;100417.41;5063951;28;20039;-54
2022/04/22 04:30:54;;;;;;;17.35;11.50;;;;;;;8.83;65.93;100427.34;5047797;28;20036;-51
2022/04/22 04:33:21;;;;;;;17.05;9.45;;;;;;;8.71;65.98;100394.28;5064563;28;20459;-55
2022/04/22 04:35:47;;;;;;;16.23;10.25;;;;;;;8.92;66.08;100421.41;5040647;28;20029;-60
2022/04/22 04:38:13;;;;;;;18.23;11.02;;;;;;;9.04;65.03;100417.94;5060544;28;20468;-54
2022/04/22 04:40:38;;;;;;;17.52;10.77;;;;;;;9.01;65.71;100420.81;5061771;28;20021;-55
2022/04/22 04:43:05;;;;;;;19.98;10.93;;;;;;;8.98;65.96;100437.06;5059209;28;20028;-53
2022/04/22 04:45:32;;;;;;;17.83;11.07;;;;;;;8.89;66.06;100416.25;5060098;28;20099;-55
2022/04/22 04:47:58;;;;;;;19.95;10.73;;;;;;;8.94;66.24;100422.19;5043314;28;20083;-56
2022/04/22 04:50:23;;;;;;;19.08;10.52;;;;;;;9.01;65.88;100418.16;5059466;28;20029;-57
2022/04/22 04:52:49;;;;;;;14.45;8.50;;;;;;;9.10;64.58;100424.72;5060135;28;20066;-54
2022/04/22 04:55:15;;;;;;;14.32;8.68;;;;;;;9.15;64.68;100416.38;5060376;28;20366;-51
2022/04/22 04:57:42;;;;;;;16.08;9.60;;;;;;;9.25;64.91;100428.19;5041446;28;20053;-62
2022/04/22 05:00:10;;;;;;;13.48;7.97;;;;;;;9.39;63.66;100429.09;5060430;28;20024;-54
2022/04/22 05:02:36;;;;;;;18.02;8.23;;;;;;;9.43;63.24;100422.59;5060568;28;20025;-53
2022/04/22 05:05:05;;;;;;;13.27;8.50;;;;;;;9.48;63.21;100417.81;5058444;28;20396;-55
2022/04/22 05:07:31;;;;;;;16.85;8.93;;;;;;;9.52;62.66;100424.66;5059993;28;20024;-53
2022/04/22 05:09:57;;;;;;;13.63;7.68;;;;;;;9.62;61.74;100416.88;5060972;28;20029;-63
2022/04/22 05:12:22;;;;;;;18.38;8.48;;;;;;;9.68;61.11;100410.28;5058764;28;20071;-57
2022/04/22 05:14:48;;;;;;;12.23;8.02;;;;;;;9.67;61.31;100413.91;5060122;28;20024;-60
2022/04/22 05:17:14;;;;;;;13.63;7.40;;;;;;;9.66;61.40;100417.53;5059961;28;20029;-59
2022/04/22 05:19:40;;;;;;;15.73;7.82;;;;;;;9.70;61.30;100422.56;5041118;28;20127;-58
2022/04/22 05:22:05;;;;;;;13.32;8.70;;;;;;;9.84;60.55;100413.59;5060012;28;20048;-55
2022/04/22 05:24:31;;;;;;;12.07;6.65;;;;;;;9.89;60.28;100419.50;5059247;28;20064;-57
2022/04/22 05:26:59;;;;;;;11.60;7.22;;;;;;;10.03;59.64;100415.88;5057916;28;20067;-59
2022/04/22 05:34:54;;;;;;;14.05;8.18;;;;;;;10.17;59.54;100414.94;5059119;28;20031;-52
2022/04/22 05:37:20;;;;;;;15.45;7.82;;;;;;;10.23;59.04;100415.47;5063183;28;20057;-52
2022/04/22 05:39:46;;;;;;;12.13;6.97;;;;;;;10.35;58.45;100422.59;5059230;28;20033;-59
2022/04/22 05:42:12;;;;;;;10.30;7.38;;;;;;;10.37;58.47;100420.72;5064834;28;20079;-57
2022/04/22 05:44:38;;;;;;;12.25;7.32;;;;;;;10.40;58.59;100420.53;5070592;28;20040;-60
2022/04/22 05:47:05;;;;;;;10.50;7.30;;;;;;;10.52;59.01;100415.25;5070464;28;20036;-52
2022/04/22 05:49:30;;;;;;;11.88;7.10;;;;;;;10.64;57.89;100411.72;5070262;28;20107;-56
2022/04/22 05:51:56;;;;;;;10.23;6.95;;;;;;;10.60;57.34;100386.97;5070319;28;20155;-54
2022/04/22 05:54:22;;;;;;;10.00;5.82;;;;;;;10.74;56.75;100401.19;5070052;28;20032;-58
2022/04/22 05:56:47;;;;;;;11.00;6.25;;;;;;;10.83;56.54;100407.69;5070778;28;20094;-62
2022/04/22 05:59:13;;;;;;;9.50;5.63;;;;;;;10.84;55.96;100404.03;5070816;28;20028;-58
2022/04/22 06:01:38;;;;;;;10.55;6.47;;;;;;;10.79;56.25;100404.38;5069942;28;20028;-57
2022/04/22 06:04:04;;;;;;;9.52;6.15;;;;;;;10.77;56.34;100423.25;5069357;28;20440;-58
2022/04/22 06:06:29;;;;;;;9.75;6.40;;;;;;;10.74;56.41;100414.59;5070594;28;20032;-55
2022/04/22 06:11:38;;;;;;;11.73;5.53;;;;;;;10.68;56.77;100417.69;5069971;28;20125;-57
2022/04/22 06:14:04;;;;;;;10.15;5.65;;;;;;;10.91;55.69;100418.72;5069901;28;20043;-55
2022/04/22 06:16:29;;;;;;;10.57;5.20;;;;;;;11.04;54.87;100416.00;5065394;28;20020;-54
2022/04/22 06:18:55;;;;;;;7.97;5.03;;;;;;;11.13;55.28;100422.50;5064661;28;20025;-57
2022/04/22 06:21:21;;;;;;;7.88;5.70;;;;;;;11.10;54.82;100393.25;5061962;28;20056;-53
2022/04/22 06:23:47;;;;;;;11.35;5.80;;;;;;;11.35;54.79;100411.03;5049964;28;20080;-57
2022/04/22 06:26:13;;;;;;;12.75;6.22;;;;;;;11.63;53.59;100412.50;5069722;28;20227;-58
2022/04/22 06:28:38;;;;;;;12.20;6.07;;;;;;;11.78;53.18;100401.56;5069465;28;20388;-59
2022/04/22 06:31:04;;;;;;;11.65;6.22;;;;;;;11.96;52.36;100403.81;5067157;28;20031;-54
2022/04/22 06:33:30;;;;;;;13.05;4.80;;;;;;;11.99;51.85;100407.13;5049281;28;20108;-57
2022/04/22 06:35:58;;;;;;;17.13;5.55;;;;;;;12.05;51.99;100393.25;5050134;28;20051;-57
2022/04/22 06:38:25;;;;;;;10.57;6.15;;;;;;;12.20;52.14;100407.31;5035969;28;20028;-59
2022/04/22 06:46:19;;;;;;;12.90;7.35;;;;;;;12.12;51.96;100382.91;5053111;28;20052;-61
2022/04/22 06:48:44;;;;;;;10.10;7.30;;;;;;;12.09;52.31;100396.56;5051405;28;20405;-54
2022/04/22 06:51:11;;;;;;;17.52;8.10;;;;;;;12.05;52.11;100400.44;5068714;28;20061;-57
2022/04/22 06:53:37;;;;;;;12.00;9.25;;;;;;;11.94;52.99;100400.41;5069769;28;20039;-56
2022/04/22 06:56:06;;;;;;;15.57;8.93;;;;;;;11.87;53.51;100402.69;5069436;28;20028;-59
2022/04/22 06:58:33;;;;;;;13.23;8.57;;;;;;;11.94;52.78;100403.09;5069136;28;20032;-57
2022/04/22 07:00:59;;;;;;;13.60;8.73;;;;;;;11.98;53.03;100394.69;5068614;28;20494;-58
2022/04/22 07:03:25;;;;;;;13.70;7.55;;;;;;;12.14;52.09;100402.44;5056427;28;20433;-60
2022/04/22 07:05:52;;;;;;;14.43;7.40;;;;;;;11.99;52.42;100404.44;5048478;28;20029;-57
2022/04/22 07:08:19;;;;;;;12.80;7.20;;;;;;;11.90;53.11;100399.78;5063058;28;20041;-62
2022/04/22 07:10:47;;;;;;;12.43;6.78;;;;;;;12.08;52.79;100402.91;5048776;28;20033;-60
2022/04/22 07:13:16;;;;;;;13.82;7.50;;;;;;;12.26;52.47;100400.59;5049146;28;20033;-61
2022/04/22 07:15:43;;;;;;;9.38;6.75;;;;;;;12.42;51.71;100400.25;5050193;28;20032;-61
2022/04/22 07:18:10;;;;;;;9.90;6.50;;;;;;;12.28;51.77;100403.16;5070056;28;20052;-61
2022/04/22 07:20:37;;;;;;;13.25;6.18;;;;;;;12.20;51.93;100395.72;5052463;28;20053;-61
2022/04/22 07:23:02;;;;;;;9.30;5.88;;;;;;;11.97;51.98;100368.81;5072536;28;20044;-62
2022/04/22 07:25:28;;;;;;;9.85;5.88;;;;;;;12.08;52.21;100408.28;5054625;28;20036;-61
2022/04/22 07:27:55;;;;;;;9.45;5.30;;;;;;;11.91;52.39;100399.66;5072049;28;20391;-61
2022/04/22 07:30:22;;;;;;;8.43;4.72;;;;;;;11.93;52.09;100410.25;5072637;28;20049;-59
2022/04/22 07:32:49;;;;;;;9.43;5.50;;;;;;;11.89;51.86;100400.75;5056257;28;20041;-60
2022/04/22 07:35:20;;;;;;;8.27;5.18;;;;;;;11.73;52.88;100396.56;5052443;28;20025;-58
2022/04/22 07:37:47;;;;;;;11.02;5.63;;;;;;;11.65;53.05;100400.81;5052271;28;20074;-56
2022/04/22 07:40:15;;;;;;;8.40;5.28;;;;;;;11.72;52.77;100394.88;5052552;28;20389;-61
2022/04/22 07:48:18;;;;;;;9.27;5.60;;;;;;;11.95;52.31;100396.75;5053013;28;20190;-60
2022/04/22 07:50:47;;;;;;;7.20;5.18;;;;;;;11.90;52.50;100394.41;5052106;28;20116;-60
2022/04/22 07:53:17;;;;;;;9.32;5.22;;;;;;;11.92;52.49;100374.53;5052603;28;20072;-56
2022/04/22 07:55:43;;;;;;;10.10;5.28;;;;;;;11.96;52.13;100385.03;5034308;28;20124;-61
2022/04/22 07:58:15;;;;;;;9.98;5.72;;;;;;;11.82;52.40;100378.91;5033552;28;20021;-62
2022/04/22 08:00:43;;;;;;;10.25;5.68;;;;;;;11.75;52.84;100380.34;5052321;28;20029;-61
2022/04/22 08:03:09;;;;;;;9.50;5.50;;;;;;;11.92;52.17;100393.31;5051852;28;20024;-62
2022/04/22 08:05:35;;;;;;;7.53;5.68;;;;;;;11.82;52.22;100381.59;5055962;28;20024;-62
2022/04/22 08:08:01;;;;;;;8.68;6.15;;;;;;;11.86;52.49;100388.44;5072196;28;20513;-60
2022/04/22 08:10:26;;;;;;;11.50;5.75;;;;;;;11.83;52.91;100383.31;5072507;28;20064;-59
2022/04/22 08:12:52;;;;;;;9.15;5.57;;;;;;;12.03;52.28;100372.88;5072870;28;20384;-61
2022/04/22 08:15:21;;;;;;;9.88;5.13;;;;;;;12.21;52.32;100381.31;5067701;28;20033;-60
2022/04/22 08:17:47;;;;;;;10.68;5.28;;;;;;;12.05;51.87;100358.38;5050875;28;20023;-60
2022/04/22 08:20:13;;;;;;;8.10;5.90;;;;;;;12.00;52.15;100363.22;5067730;28;20048;-62
2022/04/22 08:22:39;;;;;;;10.80;5.88;;;;;;;12.10;52.04;100374.13;5071128;28;20028;-60
2022/04/22 08:25:05;;;;;;;8.98;5.43;;;;;;;12.18;51.77;100369.00;5071851;28;20071;-62
2022/04/22 08:27:31;;;;;;;10.32;5.57;;;;;;;12.26;51.54;100370.19;5071219;28;20111;-63
2022/04/22 08:29:59;;;;;;;9.65;4.90;;;;;;;12.42;51.01;100362.66;5049123;28;20191;-63
2022/04/22 08:32:25;;;;;;;8.23;5.07;;;;;;;12.58;50.34;100362.25;5056221;28;20107;-64
2022/04/22 08:34:51;;;;;;;8.65;5.13;;;;;;;12.70;50.23;100355.03;5050648;28;20060;-61
2022/04/22 08:37:18;;;;;;;11.35;5.72;;;;;;;12.86;49.47;100373.44;5035589;28;20029;-59
2022/04/22 08:39:43;;;;;;;8.93;5.82;;;;;;;12.85;49.48;100365.53;5067955;28;20021;-58
2022/04/22 08:42:15;;;;;;;10.23;5.03;;;;;;;12.91;49.39;100368.59;5067863;28;20036;-63
2022/04/22 08:44:41;;;;;;;7.70;4.90;;;;;;;12.79;49.04;100366.88;5051207;28;20321;-63
2022/04/22 08:50:09;;;;;;;7.18;5.00;;;;;;;12.54;49.84;100355.44;5057044;28;20032;-63
2022/04/22 08:52:36;;;;;;;11.70;5.13;;;;;;;12.43;50.36;100358.97;5051594;28;20037;-61
2022/04/22 08:55:04;;;;;;;9.02;6.15;;;;;;;12.39;50.61;100353.97;5060029;28;20052;-63
2022/04/22 08:57:30;;;;;;;15.57;6.63;;;;;;;12.24;51.00;100356.06;5045037;28;20033;-66
2022/04/22 09:00:07;;;;;;;10.05;6.00;;;;;;;12.26;51.17;100354.97;5060791;28;20035;-64
2022/04/22 09:02:33;;;;;;;15.77;6.75;;;;;;;12.19;51.15;100345.69;5070702;28;20479;-59
2022/04/22 09:04:58;;;;;;;9.30;6.13;;;;;;;12.13;51.37;100322.00;5071239;28;20039;-62
2022/04/22 09:07:28;;;;;;;17.10;6.43;;;;;;;12.39;51.14;100351.28;5071479;28;20035;-61
2022/04/22 09:09:54;;;;;;;11.45;5.97;;;;;;;12.31;50.52;100327.75;5065511;28;20113;-62
2022/04/22 09:12:24;;;;;;;9.95;5.60;;;;;;;12.53;50.59;100348.38;5050469;28;20029;-54
2022/04/22 09:14:52;;;;;;;9.63;5.82;;;;;;;12.53;50.66;100348.38;5033696;28;20025;-54
2022/04/22 09:17:27;;;;;;;10.18;5.53;;;;;;;12.58;50.76;100342.63;5058695;28;20480;-59
2022/04/22 09:19:57;;;;;;;15.35;6.03;;;;;;;12.46;50.70;100318.44;5052505;28;20424;-59
2022/04/22 09:22:27;;;;;;;8.38;6.05;;;;;;;12.71;50.61;100350.53;5071313;28;20403;-57
2022/04/22 09:25:00;;;;;;;9.98;5.72;;;;;;;12.64;50.27;100332.22;5071209;28;20040;-54
2022/04/22 09:27:36;;;;;;;10.57;5.85;;;;;;;12.86;50.28;100343.06;5052347;28;20375;-60
2022/04/22 09:30:07;;;;;;;12.35;5.68;;;;;;;12.82;49.95;100344.28;5070421;28;20040;-56
2022/04/22 09:32:34;;;;;;;9.32;5.53;;;;;;;12.86;49.84;100332.31;5056249;28;20033;-60
2022/04/22 09:35:11;;;;;;;8.15;5.45;;;;;;;13.10;49.77;100331.25;5056743;28;20028;-61
2022/04/22 09:43:49;;;;;;;13.40;6.10;;;;;;;13.20;48.75;100313.34;5070690;28;20043;-63
2022/04/22 09:46:30;;;;;;;9.32;6.05;;;;;;;13.32;48.93;100338.38;5069856;28;20097;-57
2022/04/22 09:48:56;;;;;;;12.40;6.03;;;;;;;13.28;48.48;100328.84;5070954;28;20032;-56
2022/04/22 09:51:30;;;;;;;13.68;5.90;;;;;;;13.42;48.42;100327.69;5070889;28;20060;-57
2022/04/22 09:54:06;;;;;;;10.68;6.10;;;;;;;13.57;48.60;100329.13;5069401;28;20149;-65
2022/04/22 09:56:33;;;;;;;10.07;5.53;;;;;;;13.51;48.07;100323.41;5049307;28;20032;-64
2022/04/22 09:58:59;;;;;;;9.93;6.00;;;;;;;13.60;48.07;100317.22;5047808;28;20061;-64
2022/04/22 10:01:25;;;;;;;8.77;6.75;;;;;;;13.77;47.67;100315.78;5045961;28;20103;-64
2022/04/22 10:03:51;;;;;;;18.80;6.55;;;;;;;13.95;46.88;100318.72;5061945;28;20356;-64
2022/04/22 10:06:18;;;;;;;11.75;6.57;;;;;;;14.03;46.69;100312.66;5050201;28;20041;-62
2022/04/22 10:08:46;;;;;;;13.15;6.20;;;;;;;14.28;46.00;100311.34;5050076;28;20392;-61
2022/04/22 10:11:15;;;;;;;10.63;5.47;;;;;;;14.64;45.25;100302.78;5032441;28;20033;-57
2022/04/22 10:13:44;;;;;;;11.90;6.18;;;;;;;14.86;44.38;100301.75;5049922;28;20033;-55
2022/04/22 10:16:13;;;;;;;9.43;5.75;;;;;;;15.26;43.99;100310.69;5049423;28;20124;-58
2022/04/22 10:18:39;;;;;;;13.40;6.70;;;;;;;15.41;43.47;100289.53;5049257;28;20032;-58
2022/04/22 10:21:06;;;;;;;9.40;5.95;;;;;;;15.82;42.30;100310.88;5062559;28;20083;-60
2022/04/22 10:23:32;;;;;;;10.02;6.07;;;;;;;15.81;41.95;100297.53;5069977;28;20040;-59
2022/04/22 10:25:59;;;;;;;10.95;6.78;;;;;;;15.55;42.30;100300.84;5052243;28;20029;-57
2022/04/22 10:28:27;;;;;;;11.43;6.57;;;;;;;15.34;42.84;100293.78;5066070;28;20040;-61
2022/04/22 10:30:55;;;;;;;8.75;6.00;;;;;;;15.44;43.08;100304.59;5033112;28;20483;-58
2022/04/22 10:33:25;;;;;;;12.98;6.30;;;;;;;15.48;42.80;100289.81;5049612;28;20488;-58
2022/04/22 10:35:57;;;;;;;7.70;6.07;;;;;;;15.50;43.06;100288.63;5031608;28;20029;-60
2022/04/22 10:38:35;;;;;;;10.27;6.25;;;;;;;15.60;43.00;100285.09;5049261;28;20037;-58
2022/04/22 10:41:02;;;;;;;11.68;6.20;;;;;;;15.74;41.86;100294.56;5052226;28;20021;-55
2022/04/22 10:43:28;;;;;;;10.13;6.30;;;;;;;15.47;41.99;100288.09;5048780;28;20082;-57
2022/04/22 10:48:40;;;;;;;8.38;6.35;;;;;;;15.18;43.10;100289.81;5048899;28;20090;-59
2022/04/22 10:51:09;;;;;;;12.45;6.25;;;;;;;15.17;42.87;100266.53;5063417;28;20407;-57
2022/04/22 10:53:46;;;;;;;9.63;5.82;;;;;;;15.39;42.96;100258.28;5074296;28;20475;-55
2022/04/22 10:56:28;;;;;;;9.32;5.93;;;;;;;15.57;42.98;100282.69;5073544;28;20029;-58
2022/04/22 10:59:15;;;;;;;12.80;6.10;;;;;;;15.37;43.06;100250.34;5056278;28;20048;-51
2022/04/22 11:01:42;;;;;;;10.05;5.95;;;;;;;15.31;42.88;100267.94;5073747;28;20028;-56
2022/04/22 11:04:23;;;;;;;9.05;5.78;;;;;;;15.61;43.05;100267.91;5074240;28;20094;-53
2022/04/22 11:06:48;;;;;;;10.23;5.72;;;;;;;15.69;41.75;100264.47;5074671;28;20058;-55
2022/04/22 11:09:29;;;;;;;12.32;6.00;;;;;;;15.89;42.38;100276.91;5074024;28;20409;-53
2022/04/22 11:11:55;;;;;;;7.20;5.47;;;;;;;15.82;41.34;100278.50;5073997;28;20028;-56
2022/04/22 11:14:25;;;;;;;8.60;5.03;;;;;;;15.72;41.54;100267.72;5074285;28;20337;-53
2022/04/22 11:16:54;;;;;;;10.52;5.47;;;;;;;15.42;42.26;100266.06;5074233;28;20114;-58
2022/04/22 11:19:19;;;;;;;10.85;4.93;;;;;;;15.21;42.14;100273.34;5055993;28;20072;-53
2022/04/22 11:21:45;;;;;;;8.55;5.47;;;;;;;15.05;42.10;100267.66;5072520;28;20459;-53
2022/04/22 11:24:15;;;;;;;5.00;4.50;;;;;;;14.87;43.04;100267.53;5073731;28;20048;-54
2022/04/22 11:26:42;;;;;;;10.20;4.68;;;;;;;14.62;43.08;100273.31;5073509;28;20074;-53
2022/04/22 11:29:10;;;;;;;6.40;4.53;;;;;;;14.49;43.58;100260.09;5073271;28;20025;-57
2022/04/22 11:31:36;;;;;;;10.13;5.28;;;;;;;14.41;43.73;100268.00;5055610;28;20024;-55
2022/04/22 11:34:10;;;;;;;8.27;4.88;;;;;;;14.48;44.06;100266.47;5072961;28;20032;-57
2022/04/22 11:36:43;;;;;;;7.30;5.28;;;;;;;14.42;44.39;100271.56;5073121;28;20119;-55
2022/04/22 11:39:15;;;;;;;10.85;4.85;;;;;;;14.20;44.41;100251.94;5073531;28;20560;-51
2022/04/22 11:42:01;;;;;;;12.25;5.57;;;;;;;14.23;45.06;100261.56;5073174;28;20028;-56
2022/04/22 11:44:27;;;;;;;14.00;5.60;;;;;;;14.06;44.94;100262.06;5073420;28;20029;-53
2022/04/22 11:46:53;;;;;;;6.72;5.28;;;;;;;13.99;45.08;100260.09;5073368;28;20213;-56
2022/04/22 11:49:20;;;;;;;8.35;5.10;;;;;;;13.95;45.37;100255.94;5073181;28;20039;-56
2022/04/22 11:51:51;;;;;;;6.38;5.10;;;;;;;13.98;45.43;100252.97;5073295;28;20535;-54
2022/04/22 11:54:25;;;;;;;9.40;5.60;;;;;;;13.87;45.68;100235.09;5073321;28;20037;-52
2022/04/22 11:56:51;;;;;;;10.40;5.65;;;;;;;13.85;45.53;100243.31;5072959;28;20192;-55
2022/04/22 11:59:21;;;;;;;10.70;6.25;;;;;;;13.86;45.64;100238.75;5073157;28;20028;-53
2022/04/22 12:10:06;;;;;;;13.18;6.10;;;;;;;13.64;46.84;100237.97;5072740;28;20456;-54
2022/04/22 12:12:32;;;;;;;11.57;6.05;;;;;;;13.37;46.73;100211.59;5072955;28;20036;-60
2022/04/22 12:15:07;;;;;;;11.98;6.20;;;;;;;13.48;46.77;100231.22;5072336;28;20024;-54
2022/04/22 12:17:32;;;;;;;11.32;6.40;;;;;;;13.44;46.95;100223.53;5072609;28;20040;-56
2022/04/22 12:19:58;;;;;;;15.50;5.63;;;;;;;13.37;47.23;100222.34;5072353;28;20033;-61
2022/04/22 12:22:25;;;;;;;12.98;6.22;;;;;;;13.37;47.42;100233.94;5070797;28;20048;-54
2022/04/22 12:25:13;;;;;;;9.57;6.13;;;;;;;13.45;47.40;100231.50;5073073;28;20108;-57
2022/04/22 12:27:41;;;;;;;9.68;6.13;;;;;;;13.32;47.49;100226.28;5072563;28;20044;-58